sensor_id;sensor_type;location;lat;lon;timestamp;pressure;altitude;pressure_sealevel;temperature;humidity
61786;BME280;47692;53.714;11.372;2023-03-03T00:01:40;101864.16;;;-0.58;100.00
61786;BME280;47692;53.714;11.372;2023-03-03T00:04:05;101860.75;;;-0.57;100.00
61786;BME280;47692;53.714;11.372;2023-03-03T00:06:31;101854.13;;;-0.52;100.00
61786;BME280;47692;53.714;11.372;2023-03-03T00:08:56;101850.56;;;-0.56;100.00
61786;BME280;47692;53.714;11.372;2023-03-03T00:11:22;101848.84;;;-0.55;100.00
61786;BME280;47692;53.714;11.372;2023-03-03T00:13:52;101847.09;;;-0.56;100.00
61786;BME280;47692;53.714;11.372;2023-03-03T00:16:29;101843.88;;;-0.52;100.00
61786;BME280;47692;53.714;11.372;2023-03-03T00:18:55;101852.47;;;-0.50;100.00
61786;BME280;47692;53.714;11.372;2023-03-03T00:21:25;101847.59;;;-0.44;100.00
61786;BME280;47692;53.714;11.372;2023-03-03T00:23:54;101852.13;;;-0.38;100.00
61786;BME280;47692;53.714;11.372;2023-03-03T00:26:34;101850.41;;;-0.38;100.00
61786;BME280;47692;53.714;11.372;2023-03-03T00:29:01;101854.88;;;-0.34;100.00
61786;BME280;47692;53.714;11.372;2023-03-03T00:31:33;101848.34;;;-0.25;100.00
61786;BME280;47692;53.714;11.372;2023-03-03T00:36:36;101844.25;;;-0.20;100.00
61786;BME280;47692;53.714;11.372;2023-03-03T00:39:30;101847.22;;;-0.11;100.00
61786;BME280;47692;53.714;11.372;2023-03-03T00:41:58;101848.97;;;-0.10;100.00
61786;BME280;47692;53.714;11.372;2023-03-03T00:47:28;101837.03;;;-0.08;100.00
61786;BME280;47692;53.714;11.372;2023-03-03T00:50:15;101838.84;;;-0.05;100.00
61786;BME280;47692;53.714;11.372;2023-03-03T00:52:57;101839.84;;;-0.02;100.00
61786;BME280;47692;53.714;11.372;2023-03-03T00:55:23;101833.91;;;-0.01;100.00
61786;BME280;47692;53.714;11.372;2023-03-03T00:57:48;101836.47;;;-0.01;100.00
61786;BME280;47692;53.714;11.372;2023-03-03T01:00:14;101834.84;;;0.02;100.00
61786;BME280;47692;53.714;11.372;2023-03-03T01:02:39;101838.19;;;-0.01;100.00
61786;BME280;47692;53.714;11.372;2023-03-03T01:05:05;101832.16;;;-0.02;100.00
61786;BME280;47692;53.714;11.372;2023-03-03T01:07:30;101826.16;;;-0.02;100.00
61786;BME280;47692;53.714;11.372;2023-03-03T01:09:55;101821.63;;;-0.08;100.00
61786;BME280;47692;53.714;11.372;2023-03-03T01:12:21;101818.16;;;-0.10;100.00
61786;BME280;47692;53.714;11.372;2023-03-03T01:14:47;101824.16;;;-0.09;100.00
61786;BME280;47692;53.714;11.372;2023-03-03T01:17:13;101823.41;;;-0.07;100.00
61786;BME280;47692;53.714;11.372;2023-03-03T01:19:39;101822.53;;;-0.07;100.00
61786;BME280;47692;53.714;11.372;2023-03-03T01:22:04;101827.00;;;-0.02;100.00
61786;BME280;47692;53.714;11.372;2023-03-03T01:24:30;101819.03;;;-0.09;100.00
61786;BME280;47692;53.714;11.372;2023-03-03T01:26:55;101821.63;;;-0.08;100.00
61786;BME280;47692;53.714;11.372;2023-03-03T01:29:20;101814.75;;;-0.09;100.00
61786;BME280;47692;53.714;11.372;2023-03-03T01:31:45;101821.41;;;-0.14;100.00
61786;BME280;47692;53.714;11.372;2023-03-03T01:34:11;101812.84;;;-0.14;100.00
61786;BME280;47692;53.714;11.372;2023-03-03T01:36:36;101823.88;;;-0.17;100.00
61786;BME280;47692;53.714;11.372;2023-03-03T01:39:02;101813.53;;;-0.19;100.00
61786;BME280;47692;53.714;11.372;2023-03-03T01:41:29;101810.22;;;-0.16;100.00
61786;BME280;47692;53.714;11.372;2023-03-03T01:43:57;101799.72;;;-0.22;100.00
61786;BME280;47692;53.714;11.372;2023-03-03T01:46:40;101803.09;;;-0.23;100.00
61786;BME280;47692;53.714;11.372;2023-03-03T01:49:15;101798.66;;;-0.27;100.00
61786;BME280;47692;53.714;11.372;2023-03-03T01:51:57;101795.97;;;-0.30;100.00
61786;BME280;47692;53.714;11.372;2023-03-03T01:54:41;101791.63;;;-0.31;100.00
61786;BME280;47692;53.714;11.372;2023-03-03T01:57:13;101787.41;;;-0.31;100.00
61786;BME280;47692;53.714;11.372;2023-03-03T01:59:43;101799.16;;;-0.36;100.00
61786;BME280;47692;53.714;11.372;2023-03-03T02:02:10;101790.59;;;-0.37;100.00
61786;BME280;47692;53.714;11.372;2023-03-03T02:04:36;101799.16;;;-0.36;100.00
61786;BME280;47692;53.714;11.372;2023-03-03T02:07:05;101795.66;;;-0.38;100.00
61786;BME280;47692;53.714;11.372;2023-03-03T02:09:56;101796.53;;;-0.38;100.00
61786;BME280;47692;53.714;11.372;2023-03-03T02:12:30;101790.41;;;-0.41;100.00
61786;BME280;47692;53.714;11.372;2023-03-03T02:14:57;101792.91;;;-0.43;100.00
61786;BME280;47692;53.714;11.372;2023-03-03T02:17:23;101790.25;;;-0.46;100.00
61786;BME280;47692;53.714;11.372;2023-03-03T02:22:21;101800.56;;;-0.44;100.00
61786;BME280;47692;53.714;11.372;2023-03-03T02:24:50;101797.78;;;-0.49;100.00
61786;BME280;47692;53.714;11.372;2023-03-03T02:27:17;101796.94;;;-0.50;100.00
61786;BME280;47692;53.714;11.372;2023-03-03T02:29:43;101797.94;;;-0.46;100.00
61786;BME280;47692;53.714;11.372;2023-03-03T02:32:09;101804.53;;;-0.51;100.00
61786;BME280;47692;53.714;11.372;2023-03-03T02:35:24;101801.16;;;-0.50;100.00
61786;BME280;47692;53.714;11.372;2023-03-03T02:37:49;101816.69;;;-0.47;100.00
61786;BME280;47692;53.714;11.372;2023-03-03T02:40:15;101808.06;;;-0.49;100.00
61786;BME280;47692;53.714;11.372;2023-03-03T02:42:43;101806.19;;;-0.53;100.00
61786;BME280;47692;53.714;11.372;2023-03-03T02:45:10;101795.78;;;-0.56;100.00
61786;BME280;47692;53.714;11.372;2023-03-03T02:47:35;101790.66;;;-0.56;100.00
61786;BME280;47692;53.714;11.372;2023-03-03T02:50:00;101799.06;;;-0.60;100.00
61786;BME280;47692;53.714;11.372;2023-03-03T02:52:26;101787.03;;;-0.61;100.00
61786;BME280;47692;53.714;11.372;2023-03-03T02:54:51;101779.28;;;-0.63;100.00
61786;BME280;47692;53.714;11.372;2023-03-03T02:57:16;101785.28;;;-0.62;100.00
61786;BME280;47692;53.714;11.372;2023-03-03T02:59:42;101781.84;;;-0.63;100.00
61786;BME280;47692;53.714;11.372;2023-03-03T03:02:07;101783.53;;;-0.63;100.00
61786;BME280;47692;53.714;11.372;2023-03-03T03:04:33;101798.81;;;-0.67;100.00
61786;BME280;47692;53.714;11.372;2023-03-03T03:06:58;101794.44;;;-0.69;100.00
61786;BME280;47692;53.714;11.372;2023-03-03T03:09:24;101795.19;;;-0.72;100.00
61786;BME280;47692;53.714;11.372;2023-03-03T03:11:50;101803.53;;;-0.76;100.00
61786;BME280;47692;53.714;11.372;2023-03-03T03:14:15;101801.69;;;-0.80;100.00
61786;BME280;47692;53.714;11.372;2023-03-03T03:16:41;101802.44;;;-0.83;100.00
61786;BME280;47692;53.714;11.372;2023-03-03T03:19:07;101792.63;;;-0.93;100.00
61786;BME280;47692;53.714;11.372;2023-03-03T03:21:33;101793.91;;;-1.03;100.00
61786;BME280;47692;53.714;11.372;2023-03-03T03:23:59;101787.88;;;-1.03;100.00
61786;BME280;47692;53.714;11.372;2023-03-03T03:26:24;101787.66;;;-1.09;100.00
61786;BME280;47692;53.714;11.372;2023-03-03T03:28:50;101794.59;;;-1.07;100.00
61786;BME280;47692;53.714;11.372;2023-03-03T03:31:17;101791.16;;;-1.07;100.00
61786;BME280;47692;53.714;11.372;2023-03-03T03:33:43;101794.47;;;-1.10;100.00
61786;BME280;47692;53.714;11.372;2023-03-03T03:36:09;101784.00;;;-1.15;100.00
61786;BME280;47692;53.714;11.372;2023-03-03T03:38:35;101776.25;;;-1.16;100.00
61786;BME280;47692;53.714;11.372;2023-03-03T03:41:01;101780.31;;;-1.21;100.00
61786;BME280;47692;53.714;11.372;2023-03-03T03:43:27;101780.53;;;-1.17;100.00
61786;BME280;47692;53.714;11.372;2023-03-03T03:45:52;101772.69;;;-1.20;100.00
61786;BME280;47692;53.714;11.372;2023-03-03T03:48:18;101774.38;;;-1.20;100.00
61786;BME280;47692;53.714;11.372;2023-03-03T03:50:46;101755.00;;;-1.14;100.00
61786;BME280;47692;53.714;11.372;2023-03-03T03:53:11;101754.91;;;-1.17;100.00
61786;BME280;47692;53.714;11.372;2023-03-03T03:55:37;101753.09;;;-1.19;100.00
61786;BME280;47692;53.714;11.372;2023-03-03T03:58:02;101749.78;;;-1.17;100.00
61786;BME280;47692;53.714;11.372;2023-03-03T04:00:27;101759.06;;;-1.19;100.00
61786;BME280;47692;53.714;11.372;2023-03-03T04:02:53;101755.50;;;-1.22;100.00
61786;BME280;47692;53.714;11.372;2023-03-03T04:05:18;101754.53;;;-1.24;100.00
61786;BME280;47692;53.714;11.372;2023-03-03T04:07:43;101759.19;;;-1.37;100.00
61786;BME280;47692;53.714;11.372;2023-03-03T04:10:10;101756.47;;;-1.40;100.00
61786;BME280;47692;53.714;11.372;2023-03-03T04:12:35;101756.94;;;-1.49;100.00
61786;BME280;47692;53.714;11.372;2023-03-03T04:15:09;101756.09;;;-1.49;100.00
61786;BME280;47692;53.714;11.372;2023-03-03T04:17:35;101760.94;;;-1.55;100.00
61786;BME280;47692;53.714;11.372;2023-03-03T04:20:00;101765.13;;;-1.57;100.00
61786;BME280;47692;53.714;11.372;2023-03-03T04:22:28;101766.06;;;-1.55;100.00
61786;BME280;47692;53.714;11.372;2023-03-03T04:24:58;101762.75;;;-1.53;100.00
61786;BME280;47692;53.714;11.372;2023-03-03T04:27:23;101768.22;;;-1.45;100.00
61786;BME280;47692;53.714;11.372;2023-03-03T04:29:48;101768.06;;;-1.48;100.00
61786;BME280;47692;53.714;11.372;2023-03-03T04:32:13;101772.91;;;-1.54;100.00
61786;BME280;47692;53.714;11.372;2023-03-03T04:34:39;101781.56;;;-1.52;100.00
61786;BME280;47692;53.714;11.372;2023-03-03T04:37:04;101780.28;;;-1.62;100.00
61786;BME280;47692;53.714;11.372;2023-03-03T04:39:29;101777.78;;;-1.60;100.00
61786;BME280;47692;53.714;11.372;2023-03-03T04:41:55;101776.31;;;-1.55;100.00
61786;BME280;47692;53.714;11.372;2023-03-03T04:44:20;101776.44;;;-1.52;100.00
61786;BME280;47692;53.714;11.372;2023-03-03T04:46:46;101765.81;;;-1.61;100.00
61786;BME280;47692;53.714;11.372;2023-03-03T04:49:11;101772.38;;;-1.67;100.00
61786;BME280;47692;53.714;11.372;2023-03-03T04:51:37;101774.53;;;-1.76;100.00
61786;BME280;47692;53.714;11.372;2023-03-03T04:54:02;101773.75;;;-1.75;100.00
61786;BME280;47692;53.714;11.372;2023-03-03T04:56:29;101777.84;;;-1.79;100.00
61786;BME280;47692;53.714;11.372;2023-03-03T04:58:55;101774.94;;;-1.86;100.00
61786;BME280;47692;53.714;11.372;2023-03-03T05:01:20;101783.28;;;-1.90;100.00
61786;BME280;47692;53.714;11.372;2023-03-03T05:03:46;101776.16;;;-1.98;100.00
61786;BME280;47692;53.714;11.372;2023-03-03T05:06:12;101788.38;;;-1.90;100.00
61786;BME280;47692;53.714;11.372;2023-03-03T05:08:38;101776.56;;;-1.88;100.00
61786;BME280;47692;53.714;11.372;2023-03-03T05:11:03;101770.69;;;-1.86;100.00
61786;BME280;47692;53.714;11.372;2023-03-03T05:13:28;101778.31;;;-1.87;100.00
61786;BME280;47692;53.714;11.372;2023-03-03T05:15:55;101769.94;;;-1.83;100.00
61786;BME280;47692;53.714;11.372;2023-03-03T05:18:21;101766.47;;;-1.85;100.00
61786;BME280;47692;53.714;11.372;2023-03-03T05:20:48;101772.44;;;-1.85;100.00
61786;BME280;47692;53.714;11.372;2023-03-03T05:23:13;101773.31;;;-1.84;100.00
61786;BME280;47692;53.714;11.372;2023-03-03T05:25:40;101770.97;;;-1.80;100.00
61786;BME280;47692;53.714;11.372;2023-03-03T05:28:06;101771.72;;;-1.82;100.00
61786;BME280;47692;53.714;11.372;2023-03-03T05:30:31;101767.38;;;-1.83;100.00
61786;BME280;47692;53.714;11.372;2023-03-03T05:32:56;101770.97;;;-1.80;100.00
61786;BME280;47692;53.714;11.372;2023-03-03T05:35:23;101775.81;;;-1.86;100.00
61786;BME280;47692;53.714;11.372;2023-03-03T05:37:49;101779.16;;;-1.87;100.00
61786;BME280;47692;53.714;11.372;2023-03-03T05:40:14;101782.81;;;-1.82;100.00
61786;BME280;47692;53.714;11.372;2023-03-03T05:42:40;101774.78;;;-1.89;100.00
61786;BME280;47692;53.714;11.372;2023-03-03T05:45:05;101776.44;;;-1.91;100.00
61786;BME280;47692;53.714;11.372;2023-03-03T05:47:31;101776.16;;;-1.98;100.00
61786;BME280;47692;53.714;11.372;2023-03-03T05:49:56;101776.84;;;-2.00;100.00
61786;BME280;47692;53.714;11.372;2023-03-03T05:52:22;101773.50;;;-1.99;100.00
61786;BME280;47692;53.714;11.372;2023-03-03T05:54:48;101777.75;;;-2.00;100.00
61786;BME280;47692;53.714;11.372;2023-03-03T05:57:14;101781.91;;;-2.02;100.00
61786;BME280;47692;53.714;11.372;2023-03-03T05:59:39;101779.91;;;-1.89;100.00
61786;BME280;47692;53.714;11.372;2023-03-03T06:02:05;101778.03;;;-1.93;100.00
61786;BME280;47692;53.714;11.372;2023-03-03T06:04:30;101779.78;;;-1.92;100.00
61786;BME280;47692;53.714;11.372;2023-03-03T06:06:55;101779.06;;;-1.90;100.00
61786;BME280;47692;53.714;11.372;2023-03-03T06:09:21;101786.56;;;-1.93;100.00
61786;BME280;47692;53.714;11.372;2023-03-03T06:11:46;101790.94;;;-1.90;100.00
61786;BME280;47692;53.714;11.372;2023-03-03T06:14:12;101792.72;;;-1.89;100.00
61786;BME280;47692;53.714;11.372;2023-03-03T06:16:37;101799.59;;;-1.88;100.00
61786;BME280;47692;53.714;11.372;2023-03-03T06:19:02;101798.50;;;-1.93;100.00
61786;BME280;47692;53.714;11.372;2023-03-03T06:21:28;101799.03;;;-2.01;100.00
61786;BME280;47692;53.714;11.372;2023-03-03T06:23:53;101794.59;;;-2.05;100.00
61786;BME280;47692;53.714;11.372;2023-03-03T06:26:18;101806.88;;;-1.98;100.00
61786;BME280;47692;53.714;11.372;2023-03-03T06:28:44;101804.94;;;-2.02;100.00
61786;BME280;47692;53.714;11.372;2023-03-03T06:31:09;101803.28;;;-2.01;100.00
61786;BME280;47692;53.714;11.372;2023-03-03T06:33:34;101804.16;;;-2.01;100.00
61786;BME280;47692;53.714;11.372;2023-03-03T06:36:00;101808.59;;;-1.97;100.00
61786;BME280;47692;53.714;11.372;2023-03-03T06:38:25;101804.94;;;-2.02;100.00
61786;BME280;47692;53.714;11.372;2023-03-03T06:40:50;101812.69;;;-2.00;100.00
61786;BME280;47692;53.714;11.372;2023-03-03T06:43:16;101808.59;;;-1.97;100.00
61786;BME280;47692;53.714;11.372;2023-03-03T06:45:41;101806.03;;;-1.97;100.00
61786;BME280;47692;53.714;11.372;2023-03-03T06:48:07;101817.97;;;-1.97;100.00
61786;BME280;47692;53.714;11.372;2023-03-03T06:50:33;101814.72;;;-1.93;100.00
61786;BME280;47692;53.714;11.372;2023-03-03T06:53:06;101813.88;;;-1.93;100.00
61786;BME280;47692;53.714;11.372;2023-03-03T06:55:34;101806.25;;;-1.92;100.00
61786;BME280;47692;53.714;11.372;2023-03-03T06:58:00;101813.72;;;-1.97;100.00
61786;BME280;47692;53.714;11.372;2023-03-03T07:00:27;101822.50;;;-1.91;100.00
61786;BME280;47692;53.714;11.372;2023-03-03T07:03:00;101819.22;;;-1.89;100.00
61786;BME280;47692;53.714;11.372;2023-03-03T07:05:30;101825.34;;;-1.85;100.00
61786;BME280;47692;53.714;11.372;2023-03-03T07:07:57;101828.03;;;-1.82;100.00
61786;BME280;47692;53.714;11.372;2023-03-03T07:10:26;101822.91;;;-1.82;100.00
61786;BME280;47692;53.714;11.372;2023-03-03T07:12:53;101832.06;;;-1.87;100.00
61786;BME280;47692;53.714;11.372;2023-03-03T07:15:33;101826.28;;;-1.83;100.00
61786;BME280;47692;53.714;11.372;2023-03-03T07:17:59;101835.72;;;-1.82;100.00
61786;BME280;47692;53.714;11.372;2023-03-03T07:20:31;101831.56;;;-1.80;100.00
61786;BME280;47692;53.714;11.372;2023-03-03T07:22:59;101834.13;;;-1.80;100.00
61786;BME280;47692;53.714;11.372;2023-03-03T07:25:31;101828.59;;;-1.70;100.00
61786;BME280;47692;53.714;11.372;2023-03-03T07:28:28;101831.69;;;-1.77;100.00
61786;BME280;47692;53.714;11.372;2023-03-03T07:30:55;101833.56;;;-1.73;100.00
61786;BME280;47692;53.714;11.372;2023-03-03T07:33:30;101823.47;;;-1.70;100.00
61786;BME280;47692;53.714;11.372;2023-03-03T07:35:59;101834.78;;;-1.65;100.00
61786;BME280;47692;53.714;11.372;2023-03-03T07:40:56;101842.91;;;-1.55;100.00
61786;BME280;47692;53.714;11.372;2023-03-03T07:45:47;101850.38;;;-1.60;100.00
61786;BME280;47692;53.714;11.372;2023-03-03T07:48:36;101856.63;;;-1.53;100.00
61786;BME280;47692;53.714;11.372;2023-03-03T07:51:10;101859.41;;;-1.49;100.00
61786;BME280;47692;53.714;11.372;2023-03-03T07:53:36;101850.03;;;-1.48;100.00
61786;BME280;47692;53.714;11.372;2023-03-03T07:56:04;101855.09;;;-1.50;100.00
61786;BME280;47692;53.714;11.372;2023-03-03T07:58:38;101855.16;;;-1.48;100.00
61786;BME280;47692;53.714;11.372;2023-03-03T08:01:35;101863.22;;;-1.40;100.00
61786;BME280;47692;53.714;11.372;2023-03-03T08:04:10;101861.66;;;-1.37;100.00
61786;BME280;47692;53.714;11.372;2023-03-03T08:06:57;101871.69;;;-1.41;100.00
61786;BME280;47692;53.714;11.372;2023-03-03T08:09:37;101865.84;;;-1.39;100.00
61786;BME280;47692;53.714;11.372;2023-03-03T08:14:35;101881.31;;;-1.36;100.00
61786;BME280;47692;53.714;11.372;2023-03-03T08:17:01;101875.41;;;-1.35;100.00
61786;BME280;47692;53.714;11.372;2023-03-03T08:19:32;101867.88;;;-1.32;100.00
61786;BME280;47692;53.714;11.372;2023-03-03T08:22:36;101876.19;;;-1.36;100.00
61786;BME280;47692;53.714;11.372;2023-03-03T08:25:02;101877.09;;;-1.35;100.00
61786;BME280;47692;53.714;11.372;2023-03-03T08:27:27;101870.59;;;-1.27;100.00
61786;BME280;47692;53.714;11.372;2023-03-03T08:29:53;101872.44;;;-1.24;100.00
61786;BME280;47692;53.714;11.372;2023-03-03T08:32:18;101869.44;;;-1.16;100.00
61786;BME280;47692;53.714;11.372;2023-03-03T08:34:44;101876.28;;;-1.15;100.00
61786;BME280;47692;53.714;11.372;2023-03-03T08:37:09;101874.19;;;-1.04;100.00
61786;BME280;47692;53.714;11.372;2023-03-03T08:39:34;101868.53;;;-1.16;100.00
61786;BME280;47692;53.714;11.372;2023-03-03T08:42:00;101874.47;;;-1.17;100.00
61786;BME280;47692;53.714;11.372;2023-03-03T08:44:25;101864.03;;;-1.22;100.00
61786;BME280;47692;53.714;11.372;2023-03-03T08:46:50;101873.31;;;-1.24;100.00
61786;BME280;47692;53.714;11.372;2023-03-03T08:49:15;101873.81;;;-1.13;100.00
61786;BME280;47692;53.714;11.372;2023-03-03T08:51:41;101873.91;;;-1.10;100.00
61786;BME280;47692;53.714;11.372;2023-03-03T08:54:06;101866.44;;;-1.05;100.00
61786;BME280;47692;53.714;11.372;2023-03-03T08:56:32;101872.44;;;-1.05;100.00
61786;BME280;47692;53.714;11.372;2023-03-03T08:58:57;101867.56;;;-0.99;100.00
61786;BME280;47692;53.714;11.372;2023-03-03T09:01:22;101872.84;;;-0.95;100.00
61786;BME280;47692;53.714;11.372;2023-03-03T09:03:48;101873.59;;;-0.98;100.00
61786;BME280;47692;53.714;11.372;2023-03-03T09:06:13;101872.34;;;-0.87;100.00
61786;BME280;47692;53.714;11.372;2023-03-03T09:08:38;101881.19;;;-0.80;100.00
61786;BME280;47692;53.714;11.372;2023-03-03T09:11:13;101870.00;;;-0.82;100.00
61786;BME280;47692;53.714;11.372;2023-03-03T09:13:39;101871.06;;;-0.77;100.00
61786;BME280;47692;53.714;11.372;2023-03-03T09:16:14;101861.06;;;-0.71;100.00
61786;BME280;47692;53.714;11.372;2023-03-03T09:18:41;101856.00;;;-0.69;100.00
61786;BME280;47692;53.714;11.372;2023-03-03T09:21:22;101863.63;;;-0.71;100.00
61786;BME280;47692;53.714;11.372;2023-03-03T09:23:58;101860.31;;;-0.68;100.00
61786;BME280;47692;53.714;11.372;2023-03-03T09:26:31;101869.94;;;-0.62;100.00
61786;BME280;47692;53.714;11.372;2023-03-03T09:31:48;101868.53;;;-0.56;100.00
61786;BME280;47692;53.714;11.372;2023-03-03T09:34:23;101869.63;;;-0.49;100.00
61786;BME280;47692;53.714;11.372;2023-03-03T09:36:51;101880.28;;;-0.40;100.00
61786;BME280;47692;53.714;11.372;2023-03-03T09:39:21;101873.41;;;-0.41;100.00
61786;BME280;47692;53.714;11.372;2023-03-03T10:02:18;101872.25;;;-0.26;100.00
61786;BME280;47692;53.714;11.372;2023-03-03T10:10:27;101860.88;;;-0.33;100.00
61786;BME280;47692;53.714;11.372;2023-03-03T10:13:23;101864.00;;;-0.19;100.00
61786;BME280;47692;53.714;11.372;2023-03-03T10:18:38;101865.03;;;-0.14;100.00
61786;BME280;47692;53.714;11.372;2023-03-03T10:21:28;101866.22;;;-0.06;100.00
61786;BME280;47692;53.714;11.372;2023-03-03T10:24:19;101869.03;;;0.01;100.00
61786;BME280;47692;53.714;11.372;2023-03-03T10:27:53;101871.47;;;-0.03;100.00
61786;BME280;47692;53.714;11.372;2023-03-03T10:36:08;101863.47;;;-0.10;100.00
61786;BME280;47692;53.714;11.372;2023-03-03T10:51:58;101830.88;;;0.10;100.00
61786;BME280;47692;53.714;11.372;2023-03-03T10:58:07;101834.06;;;0.27;100.00
61786;BME280;47692;53.714;11.372;2023-03-03T11:04:00;101828.97;;;0.51;100.00
61786;BME280;47692;53.714;11.372;2023-03-03T11:09:33;101820.78;;;0.61;100.00
61786;BME280;47692;53.714;11.372;2023-03-03T11:14:47;101827.22;;;0.74;100.00
61786;BME280;47692;53.714;11.372;2023-03-03T11:17:27;101822.25;;;0.79;100.00
61786;BME280;47692;53.714;11.372;2023-03-03T11:20:15;101816.38;;;0.83;100.00
61786;BME280;47692;53.714;11.372;2023-03-03T11:22:52;101823.50;;;0.90;100.00
61786;BME280;47692;53.714;11.372;2023-03-03T11:25:39;101821.13;;;0.96;100.00
61786;BME280;47692;53.714;11.372;2023-03-03T11:36:44;101819.59;;;1.02;100.00
61786;BME280;47692;53.714;11.372;2023-03-03T11:39:16;101813.75;;;1.06;100.00
61786;BME280;47692;53.714;11.372;2023-03-03T11:42:00;101811.88;;;1.02;100.00
61786;BME280;47692;53.714;11.372;2023-03-03T11:44:28;101811.09;;;1.04;100.00
61786;BME280;47692;53.714;11.372;2023-03-03T11:52:31;101814.88;;;1.14;100.00
61786;BME280;47692;53.714;11.372;2023-03-03T11:55:14;101804.31;;;1.06;100.00
61786;BME280;47692;53.714;11.372;2023-03-03T11:57:57;101805.59;;;1.19;100.00
61786;BME280;47692;53.714;11.372;2023-03-03T12:00:44;101801.53;;;1.26;100.00
61786;BME280;47692;53.714;11.372;2023-03-03T12:03:33;101799.31;;;1.37;100.00
61786;BME280;47692;53.714;11.372;2023-03-03T12:06:22;101796.88;;;1.41;100.00
61786;BME280;47692;53.714;11.372;2023-03-03T12:09:00;101796.38;;;1.52;100.00
61786;BME280;47692;53.714;11.372;2023-03-03T12:11:50;101797.41;;;1.57;100.00
61786;BME280;47692;53.714;11.372;2023-03-03T12:26:12;101781.72;;;1.78;100.00
61786;BME280;47692;53.714;11.372;2023-03-03T12:28:52;101780.25;;;1.86;100.00
61786;BME280;47692;53.714;11.372;2023-03-03T12:34:40;101775.28;;;1.92;100.00
61786;BME280;47692;53.714;11.372;2023-03-03T12:37:14;101771.13;;;1.98;100.00
61786;BME280;47692;53.714;11.372;2023-03-03T12:48:18;101755.00;;;2.03;100.00
61786;BME280;47692;53.714;11.372;2023-03-03T12:53:56;101745.91;;;2.16;100.00
61786;BME280;47692;53.714;11.372;2023-03-03T12:56:35;101736.63;;;2.21;100.00
61786;BME280;47692;53.714;11.372;2023-03-03T13:04:45;101719.97;;;2.40;100.00
61786;BME280;47692;53.714;11.372;2023-03-03T13:07:37;101722.44;;;2.37;100.00
61786;BME280;47692;53.714;11.372;2023-03-03T13:10:08;101715.63;;;2.39;100.00
61786;BME280;47692;53.714;11.372;2023-03-03T13:13:02;101708.09;;;2.47;100.00
61786;BME280;47692;53.714;11.372;2023-03-03T13:15:37;101708.84;;;2.43;100.00
61786;BME280;47692;53.714;11.372;2023-03-03T13:21:05;101707.25;;;2.48;100.00
61786;BME280;47692;53.714;11.372;2023-03-03T13:23:40;101694.22;;;2.42;100.00
61786;BME280;47692;53.714;11.372;2023-03-03T13:26:14;101692.56;;;2.44;100.00
61786;BME280;47692;53.714;11.372;2023-03-03T13:29:02;101694.31;;;2.45;100.00
61786;BME280;47692;53.714;11.372;2023-03-03T13:31:33;101685.88;;;2.52;100.00
61786;BME280;47692;53.714;11.372;2023-03-03T13:34:00;101682.56;;;2.56;100.00
61786;BME280;47692;53.714;11.372;2023-03-03T13:36:34;101677.63;;;2.66;100.00
61786;BME280;47692;53.714;11.372;2023-03-03T13:39:27;101684.41;;;2.62;100.00
61786;BME280;47692;53.714;11.372;2023-03-03T13:44:55;101679.31;;;2.64;100.00
61786;BME280;47692;53.714;11.372;2023-03-03T13:47:41;101675.97;;;2.68;100.00
61786;BME280;47692;53.714;11.372;2023-03-03T14:01:26;101662.16;;;2.66;100.00
61786;BME280;47692;53.714;11.372;2023-03-03T14:06:40;101650.94;;;2.64;100.00
61786;BME280;47692;53.714;11.372;2023-03-03T14:12:17;101643.44;;;2.73;100.00
61786;BME280;47692;53.714;11.372;2023-03-03T14:18:28;101638.13;;;2.67;100.00
61786;BME280;47692;53.714;11.372;2023-03-03T14:20:54;101638.22;;;2.70;100.00
61786;BME280;47692;53.714;11.372;2023-03-03T14:23:29;101640.84;;;2.73;100.00
61786;BME280;47692;53.714;11.372;2023-03-03T14:28:36;101633.13;;;2.73;100.00
61786;BME280;47692;53.714;11.372;2023-03-03T14:33:43;101626.22;;;2.72;100.00
61786;BME280;47692;53.714;11.372;2023-03-03T14:36:11;101619.31;;;2.71;100.00
61786;BME280;47692;53.714;11.372;2023-03-03T14:38:39;101617.63;;;2.73;100.00
61786;BME280;47692;53.714;11.372;2023-03-03T14:41:17;101613.41;;;2.75;100.00
61786;BME280;47692;53.714;11.372;2023-03-03T14:43:58;101609.13;;;2.77;100.00
61786;BME280;47692;53.714;11.372;2023-03-03T14:48:57;101608.53;;;2.87;100.00
61786;BME280;47692;53.714;11.372;2023-03-03T14:51:25;101601.75;;;2.91;100.00
61786;BME280;47692;53.714;11.372;2023-03-03T14:53:54;101598.41;;;2.97;99.67
61786;BME280;47692;53.714;11.372;2023-03-03T14:56:29;101601.97;;;3.02;99.90
61786;BME280;47692;53.714;11.372;2023-03-03T14:59:16;101590.81;;;3.03;99.47
61786;BME280;47692;53.714;11.372;2023-03-03T15:01:43;101590.94;;;3.09;99.15
61786;BME280;47692;53.714;11.372;2023-03-03T15:11:54;101589.34;;;3.14;99.48
61786;BME280;47692;53.714;11.372;2023-03-03T15:14:28;101580.84;;;3.18;99.65
61786;BME280;47692;53.714;11.372;2023-03-03T15:16:57;101574.19;;;3.30;99.60
61786;BME280;47692;53.714;11.372;2023-03-03T15:19:47;101578.69;;;3.40;99.14
61786;BME280;47692;53.714;11.372;2023-03-03T15:27:35;101562.63;;;3.53;98.28
61786;BME280;47692;53.714;11.372;2023-03-03T15:30:21;101558.50;;;3.63;98.37
61786;BME280;47692;53.714;11.372;2023-03-03T15:33:00;101556.75;;;3.62;97.71
61786;BME280;47692;53.714;11.372;2023-03-03T15:38:31;101552.53;;;3.66;97.22
61786;BME280;47692;53.714;11.372;2023-03-03T15:44:05;101552.56;;;3.69;96.24
61786;BME280;47692;53.714;11.372;2023-03-03T15:52:34;101536.25;;;3.71;94.73
61786;BME280;47692;53.714;11.372;2023-03-03T15:57:47;101523.22;;;3.64;95.48